Time,TemperatureF,DewpointF,PressureIn,WindDirection,WindDirectionDegrees,WindSpeedMPH,WindSpeedGustMPH,Humidity,HourlyPrecipIn,Conditions,Clouds,dailyrainin,SoftwareType,DateUTC
2013-05-18 00:00:00,64.8,63.3,30.06,NE,39,0.0,0.0,95,0.00,,,0.00,WUHU216DAVISVP2,2013-05-18 04:00:00,
2013-05-18 00:01:00,64.8,63.3,30.06,NE,39,0.0,0.0,95,0.00,,,0.00,WUHU216DAVISVP2,2013-05-18 04:01:00,
2013-05-18 00:02:00,64.8,63.3,30.07,NE,39,0.0,0.0,95,0.00,,,0.00,WUHU216DAVISVP2,2013-05-18 04:02:00,
2013-05-18 00:07:00,64.7,63.2,30.07,NE,39,0.0,0.0,95,0.00,,,0.00,WUHU216DAVISVP2,2013-05-18 04:07:00,
2013-05-18 00:12:00,64.6,63.1,30.07,NE,39,0.0,0.0,95,0.00,,,0.00,WUHU216DAVISVP2,2013-05-18 04:12:00,
2013-05-18 00:17:00,64.5,63.0,30.07,NE,39,0.0,0.0,95,0.00,,,0.00,WUHU216DAVISVP2,2013-05-18 04:17:00,
2013-05-18 00:22:00,64.3,62.8,30.07,NE,39,0.0,0.0,95,0.00,,,0.00,WUHU216DAVISVP2,2013-05-18 04:22:00,
2013-05-18 00:27:00,64.1,62.6,30.07,NE,39,0.0,0.0,95,0.00,,,0.00,WUHU216DAVISVP2,2013-05-18 04:27:00,
2013-05-18 00:30:00,64.1,62.9,30.07,NE,45,0.0,1.0,96,0.00,,,0.00,WUHU216DAVISVP2,2013-05-18 04:30:00,
2013-05-18 00:32:00,64.0,62.8,30.07,NE,39,0.0,1.0,96,0.00,,,0.00,WUHU216DAVISVP2,2013-05-18 04:32:00,
2013-05-18 00:37:00,63.9,62.7,30.07,NE,39,0.0,1.0,96,0.00,,,0.00,WUHU216DAVISVP2,2013-05-18 04:37:00,
2013-05-18 00:42:00,63.8,62.6,30.07,NE,39,0.0,1.0,96,0.00,,,0.00,WUHU216DAVISVP2,2013-05-18 04:42:00,
2013-05-18 00:47:00,63.7,62.5,30.07,NE,39,0.0,1.0,96,0.00,,,0.00,WUHU216DAVISVP2,2013-05-18 04:47:00,
2013-05-18 00:52:00,63.7,62.5,30.07,NE,39,0.0,0.0,96,0.00,,,0.00,WUHU216DAVISVP2,2013-05-18 04:52:00,
2013-05-18 00:57:00,63.6,62.4,30.07,NE,39,0.0,0.0,96,0.00,,,0.00,WUHU216DAVISVP2,2013-05-18 04:57:00,
2013-05-18 01:00:00,63.6,62.4,30.07,North,0,0.0,0.0,96,0.00,,,0.00,WUHU216DAVISVP2,2013-05-18 05:00:00,
2013-05-18 01:02:00,63.6,62.4,30.07,NE,39,0.0,0.0,96,0.00,,,0.00,WUHU216DAVISVP2,2013-05-18 05:02:00,
2013-05-18 01:07:00,63.4,62.2,30.07,NE,39,0.0,0.0,96,0.00,,,0.00,WUHU216DAVISVP2,2013-05-18 05:07:00,
2013-05-18 01:12:00,63.3,62.1,30.07,NE,39,0.0,0.0,96,0.00,,,0.00,WUHU216DAVISVP2,2013-05-18 05:12:00,
2013-05-18 01:17:00,63.3,62.4,30.07,NE,39,0.0,0.0,97,0.00,,,0.00,WUHU216DAVISVP2,2013-05-18 05:17:00,
2013-05-18 01:22:00,63.1,61.9,30.07,NE,39,0.0,0.0,96,0.00,,,0.00,WUHU216DAVISVP2,2013-05-18 05:22:00,
2013-05-18 01:27:00,63.1,62.2,30.07,NE,39,0.0,0.0,97,0.00,,,0.00,WUHU216DAVISVP2,2013-05-18 05:27:00,
2013-05-18 01:30:00,63.1,62.2,30.07,North,0,0.0,0.0,97,0.00,,,0.00,WUHU216DAVISVP2,2013-05-18 05:30:00,
2013-05-18 01:32:00,63.2,62.3,30.07,NE,39,0.0,0.0,97,0.00,,,0.00,WUHU216DAVISVP2,2013-05-18 05:32:00,
2013-05-18 01:37:00,63.3,62.4,30.07,NE,39,0.0,1.0,97,0.00,,,0.00,WUHU216DAVISVP2,2013-05-18 05:37:00,
2013-05-18 01:42:00,63.3,62.4,30.07,NE,39,1.0,1.0,97,0.00,,,0.00,WUHU216DAVISVP2,2013-05-18 05:42:00,
2013-05-18 01:47:00,63.3,62.4,30.07,ENE,59,2.0,4.0,97,0.00,,,0.00,WUHU216DAVISVP2,2013-05-18 05:47:00,
2013-05-18 01:51:00,63.3,62.4,30.07,ENE,62,2.0,4.0,97,0.00,,,0.00,WUHU216DAVISVP2,2013-05-18 05:51:00,
2013-05-18 01:57:00,63.2,62.3,30.07,ENE,65,1.0,3.0,97,0.00,,,0.00,WUHU216DAVISVP2,2013-05-18 05:57:00,
2013-05-18 02:00:00,63.2,62.3,30.07,ENE,68,1.0,4.0,97,0.00,,,0.00,WUHU216DAVISVP2,2013-05-18 06:00:00,
2013-05-18 02:01:00,63.2,62.3,30.07,ENE,59,2.0,3.0,97,0.00,,,0.00,WUHU216DAVISVP2,2013-05-18 06:01:00,
2013-05-18 02:07:00,63.1,62.2,30.07,NE,49,2.0,3.0,97,0.00,,,0.00,WUHU216DAVISVP2,2013-05-18 06:07:00,
2013-05-18 02:11:00,63.0,62.1,30.07,NNE,27,2.0,3.0,97,0.00,,,0.00,WUHU216DAVISVP2,2013-05-18 06:11:00,
2013-05-18 02:16:00,62.9,62.0,30.07,NE,49,1.0,3.0,97,0.00,,,0.00,WUHU216DAVISVP2,2013-05-18 06:16:00,
2013-05-18 02:21:00,63.0,62.1,30.07,ENE,58,2.0,3.0,97,0.00,,,0.00,WUHU216DAVISVP2,2013-05-18 06:21:00,
2013-05-18 02:26:00,63.0,62.1,30.07,ENE,57,2.0,3.0,97,0.00,,,0.00,WUHU216DAVISVP2,2013-05-18 06:26:00,
2013-05-18 02:30:00,63.0,62.1,30.07,ENE,68,2.0,3.0,97,0.00,,,0.00,WUHU216DAVISVP2,2013-05-18 06:30:00,
2013-05-18 02:31:00,63.0,62.1,30.06,NE,51,2.0,3.0,97,0.00,,,0.00,WUHU216DAVISVP2,2013-05-18 06:31:00,
2013-05-18 02:36:00,63.0,62.1,30.06,ENE,61,2.0,3.0,97,0.00,,,0.00,WUHU216DAVISVP2,2013-05-18 06:36:00,
2013-05-18 02:41:00,63.1,62.2,30.06,NE,53,3.0,4.0,97,0.00,,,0.00,WUHU216DAVISVP2,2013-05-18 06:41:00,
2013-05-18 02:46:00,63.1,62.2,30.06,NE,43,2.0,4.0,97,0.00,,,0.00,WUHU216DAVISVP2,2013-05-18 06:46:00,
2013-05-18 02:51:00,63.0,62.1,30.06,NE,36,2.0,4.0,97,0.00,,,0.00,WUHU216DAVISVP2,2013-05-18 06:51:00,
2013-05-18 02:56:00,62.9,62.0,30.07,North,360,0.0,4.0,97,0.00,,,0.00,WUHU216DAVISVP2,2013-05-18 06:56:00,
2013-05-18 03:00:00,62.9,62.0,30.07,NE,45,2.0,4.0,97,0.00,,,0.00,WUHU216DAVISVP2,2013-05-18 07:00:00,
2013-05-18 03:01:00,62.9,62.0,30.07,North,1,0.0,3.0,97,0.00,,,0.00,WUHU216DAVISVP2,2013-05-18 07:01:00,
2013-05-18 03:06:00,62.9,62.0,30.07,North,1,0.0,3.0,97,0.00,,,0.00,WUHU216DAVISVP2,2013-05-18 07:06:00,
2013-05-18 03:11:00,62.9,62.0,30.06,NE,49,1.0,2.0,97,0.00,,,0.00,WUHU216DAVISVP2,2013-05-18 07:11:00,
2013-05-18 03:16:00,63.0,62.1,30.06,NE,50,3.0,4.0,97,0.00,,,0.00,WUHU216DAVISVP2,2013-05-18 07:16:00,
2013-05-18 03:21:00,63.0,62.1,30.06,NE,44,1.0,5.0,97,0.00,,,0.00,WUHU216DAVISVP2,2013-05-18 07:21:00,
2013-05-18 03:26:00,62.9,62.0,30.06,NE,53,3.0,5.0,97,0.00,,,0.00,WUHU216DAVISVP2,2013-05-18 07:26:00,
2013-05-18 03:30:00,62.9,62.0,30.06,NE,45,1.0,5.0,97,0.00,,,0.00,WUHU216DAVISVP2,2013-05-18 07:30:00,
2013-05-18 03:31:00,62.8,61.9,30.06,NNE,32,3.0,4.0,97,0.00,,,0.00,WUHU216DAVISVP2,2013-05-18 07:31:00,
2013-05-18 03:36:00,62.7,61.8,30.06,NE,47,0.0,4.0,97,0.00,,,0.00,WUHU216DAVISVP2,2013-05-18 07:36:00,
2013-05-18 03:41:00,62.6,61.7,30.06,NE,47,0.0,3.0,97,0.00,,,0.00,WUHU216DAVISVP2,2013-05-18 07:41:00,
2013-05-18 03:46:00,62.6,61.7,30.06,NE,47,0.0,3.0,97,0.00,,,0.00,WUHU216DAVISVP2,2013-05-18 07:46:00,
2013-05-18 03:51:00,62.6,61.7,30.06,ENE,65,2.0,3.0,97,0.00,,,0.00,WUHU216DAVISVP2,2013-05-18 07:51:00,
2013-05-18 03:56:00,62.7,61.8,30.06,ENE,61,2.0,3.0,97,0.00,,,0.00,WUHU216DAVISVP2,2013-05-18 07:56:00,
2013-05-18 04:00:00,62.7,61.8,30.07,ENE,68,1.0,3.0,97,0.00,,,0.00,WUHU216DAVISVP2,2013-05-18 08:00:00,
2013-05-18 04:01:00,62.7,61.8,30.07,ENE,61,0.0,3.0,97,0.00,,,0.00,WUHU216DAVISVP2,2013-05-18 08:01:00,
2013-05-18 04:06:00,62.5,61.6,30.07,ENE,61,0.0,3.0,97,0.00,,,0.00,WUHU216DAVISVP2,2013-05-18 08:06:00,
2013-05-18 04:11:00,62.3,61.4,30.07,ENE,61,0.0,3.0,97,0.00,,,0.00,WUHU216DAVISVP2,2013-05-18 08:11:00,
2013-05-18 04:16:00,62.2,61.3,30.07,ENE,61,0.0,2.0,97,0.00,,,0.00,WUHU216DAVISVP2,2013-05-18 08:16:00,
2013-05-18 04:21:00,62.2,61.3,30.07,ENE,61,0.0,0.0,97,0.00,,,0.00,WUHU216DAVISVP2,2013-05-18 08:21:00,
2013-05-18 04:26:00,62.1,61.2,30.07,ENE,61,0.0,0.0,97,0.00,,,0.00,WUHU216DAVISVP2,2013-05-18 08:26:00,
2013-05-18 04:30:00,62.1,61.2,30.07,North,0,0.0,0.0,97,0.00,,,0.00,WUHU216DAVISVP2,2013-05-18 08:30:00,
2013-05-18 04:31:00,62.1,61.2,30.07,ENE,60,1.0,1.0,97,0.00,,,0.00,WUHU216DAVISVP2,2013-05-18 08:31:00,
2013-05-18 04:36:00,62.2,61.3,30.07,ENE,57,1.0,2.0,97,0.00,,,0.00,WUHU216DAVISVP2,2013-05-18 08:36:00,
2013-05-18 04:41:00,62.1,61.2,30.07,NE,37,1.0,2.0,97,0.00,,,0.00,WUHU216DAVISVP2,2013-05-18 08:41:00,
2013-05-18 04:46:00,62.2,61.3,30.07,NE,43,1.0,2.0,97,0.00,,,0.00,WUHU216DAVISVP2,2013-05-18 08:46:00,
2013-05-18 04:51:00,62.2,61.3,30.07,NE,50,2.0,3.0,97,0.00,,,0.00,WUHU216DAVISVP2,2013-05-18 08:51:00,
2013-05-18 04:56:00,62.3,61.4,30.07,ENE,57,2.0,4.0,97,0.00,,,0.00,WUHU216DAVISVP2,2013-05-18 08:56:00,
2013-05-18 05:00:00,62.4,61.5,30.07,ENE,68,1.0,4.0,97,0.00,,,0.00,WUHU216DAVISVP2,2013-05-18 09:00:00,
2013-05-18 05:01:00,62.4,61.5,30.07,ENE,72,0.0,4.0,97,0.00,,,0.00,WUHU216DAVISVP2,2013-05-18 09:01:00,
2013-05-18 05:06:00,62.4,61.5,30.07,ENE,71,1.0,4.0,97,0.00,,,0.00,WUHU216DAVISVP2,2013-05-18 09:06:00,
2013-05-18 05:11:00,62.4,61.5,30.07,ENE,65,1.0,4.0,97,0.00,,,0.00,WUHU216DAVISVP2,2013-05-18 09:11:00,
2013-05-18 05:16:00,62.4,61.5,30.08,ENE,67,1.0,3.0,97,0.00,,,0.00,WUHU216DAVISVP2,2013-05-18 09:16:00,
2013-05-18 05:21:00,62.5,61.6,30.08,ENE,72,2.0,4.0,97,0.00,,,0.00,WUHU216DAVISVP2,2013-05-18 09:21:00,
2013-05-18 05:26:00,62.5,61.6,30.08,ENE,61,3.0,5.0,97,0.00,,,0.00,WUHU216DAVISVP2,2013-05-18 09:26:00,
2013-05-18 05:30:00,62.5,61.6,30.08,ENE,68,2.0,5.0,97,0.00,,,0.00,WUHU216DAVISVP2,2013-05-18 09:30:00,
2013-05-18 05:31:00,62.5,61.6,30.08,ENE,61,3.0,5.0,97,0.00,,,0.00,WUHU216DAVISVP2,2013-05-18 09:31:00,
2013-05-18 05:36:00,62.5,61.6,30.08,ENE,69,4.0,6.0,97,0.00,,,0.00,WUHU216DAVISVP2,2013-05-18 09:36:00,
2013-05-18 05:41:00,62.4,61.5,30.08,ENE,60,4.0,7.0,97,0.00,,,0.00,WUHU216DAVISVP2,2013-05-18 09:41:00,
2013-05-18 05:46:00,62.4,61.5,30.08,ENE,60,3.0,7.0,97,0.00,,,0.00,WUHU216DAVISVP2,2013-05-18 09:46:00,
2013-05-18 05:51:00,62.4,61.5,30.08,NE,53,3.0,6.0,97,0.00,,,0.00,WUHU216DAVISVP2,2013-05-18 09:51:00,
2013-05-18 05:56:00,62.4,61.5,30.08,ENE,63,4.0,6.0,97,0.00,,,0.00,WUHU216DAVISVP2,2013-05-18 09:56:00,
2013-05-18 06:00:00,62.4,61.5,30.08,ENE,68,4.0,7.0,97,0.00,,,0.00,WUHU216DAVISVP2,2013-05-18 10:00:00,
2013-05-18 06:01:00,62.4,61.5,30.08,NE,51,2.0,7.0,97,0.00,,,0.00,WUHU216DAVISVP2,2013-05-18 10:01:00,
2013-05-18 06:06:00,62.4,61.5,30.08,ENE,68,5.0,7.0,97,0.00,,,0.00,WUHU216DAVISVP2,2013-05-18 10:06:00,
2013-05-18 06:11:00,62.5,61.6,30.08,NE,53,4.0,8.0,97,0.00,,,0.00,WUHU216DAVISVP2,2013-05-18 10:11:00,
2013-05-18 06:16:00,62.5,61.6,30.09,NE,43,5.0,8.0,97,0.00,,,0.00,WUHU216DAVISVP2,2013-05-18 10:16:00,
2013-05-18 06:21:00,62.5,61.6,30.09,ENE,72,2.0,7.0,97,0.00,,,0.00,WUHU216DAVISVP2,2013-05-18 10:21:00,
2013-05-18 06:26:00,62.5,61.6,30.10,ESE,117,0.0,7.0,97,0.00,,,0.00,WUHU216DAVISVP2,2013-05-18 10:26:00,
2013-05-18 06:30:00,62.5,61.6,30.11,ENE,68,3.0,8.0,97,0.00,,,0.00,WUHU216DAVISVP2,2013-05-18 10:30:00,
2013-05-18 06:31:00,62.6,61.7,30.11,ESE,117,1.0,6.0,97,0.01,,,0.01,WUHU216DAVISVP2,2013-05-18 10:31:00,
2013-05-18 06:36:00,62.6,61.7,30.10,ENE,58,5.0,5.0,97,0.04,,,0.04,WUHU216DAVISVP2,2013-05-18 10:36:00,
2013-05-18 06:41:00,62.7,61.8,30.10,ENE,72,3.0,6.0,97,0.04,,,0.04,WUHU216DAVISVP2,2013-05-18 10:41:00,
2013-05-18 06:46:00,62.6,61.7,30.10,NE,53,7.0,8.0,97,0.04,,,0.04,WUHU216DAVISVP2,2013-05-18 10:46:00,
2013-05-18 06:51:00,62.6,61.7,30.10,ESE,119,3.0,9.0,97,0.04,,,0.04,WUHU216DAVISVP2,2013-05-18 10:51:00,
2013-05-18 06:56:00,62.6,61.7,30.10,ENE,57,4.0,9.0,97,0.04,,,0.04,WUHU216DAVISVP2,2013-05-18 10:56:00,
2013-05-18 07:00:00,62.5,61.6,30.11,ENE,68,4.0,9.0,97,0.00,,,0.00,WUHU216DAVISVP2,2013-05-18 11:00:00,
2013-05-18 07:01:00,62.5,61.6,30.11,ENE,58,5.0,8.0,97,0.04,,,0.04,WUHU216DAVISVP2,2013-05-18 11:01:00,
2013-05-18 07:06:00,62.5,61.6,30.10,NE,41,5.0,8.0,97,0.04,,,0.04,WUHU216DAVISVP2,2013-05-18 11:06:00,
2013-05-18 07:11:00,62.5,61.6,30.11,ENE,63,5.0,8.0,97,0.04,,,0.04,WUHU216DAVISVP2,2013-05-18 11:11:00,
2013-05-18 07:16:00,62.4,61.5,30.11,ENE,68,7.0,11.0,97,0.04,,,0.04,WUHU216DAVISVP2,2013-05-18 11:16:00,
2013-05-18 07:21:00,62.4,61.5,30.11,ENE,58,7.0,12.0,97,0.05,,,0.05,WUHU216DAVISVP2,2013-05-18 11:21:00,
2013-05-18 07:26:00,62.4,61.5,30.11,ENE,63,4.0,12.0,97,0.05,,,0.05,WUHU216DAVISVP2,2013-05-18 11:26:00,
2013-05-18 07:30:00,62.4,61.5,30.11,ENE,68,6.0,12.0,97,0.04,,,0.04,WUHU216DAVISVP2,2013-05-18 11:30:00,
2013-05-18 07:31:00,62.4,61.5,30.11,ENE,58,7.0,10.0,97,0.04,,,0.05,WUHU216DAVISVP2,2013-05-18 11:31:00,
2013-05-18 07:36:00,62.5,61.6,30.11,ENE,57,6.0,10.0,97,0.01,,,0.05,WUHU216DAVISVP2,2013-05-18 11:36:00,
2013-05-18 07:41:00,62.5,61.6,30.12,NE,53,3.0,9.0,97,0.01,,,0.05,WUHU216DAVISVP2,2013-05-18 11:41:00,
2013-05-18 07:46:00,62.6,61.7,30.12,ENE,63,5.0,9.0,97,0.01,,,0.05,WUHU216DAVISVP2,2013-05-18 11:46:00,
2013-05-18 07:51:00,62.6,61.7,30.12,ENE,58,1.0,8.0,97,0.01,,,0.05,WUHU216DAVISVP2,2013-05-18 11:51:00,
2013-05-18 07:56:00,62.6,61.7,30.12,NNW,348,3.0,8.0,97,0.01,,,0.05,WUHU216DAVISVP2,2013-05-18 11:56:00,
2013-05-18 08:00:00,62.6,61.7,30.12,ENE,68,3.0,9.0,97,0.01,,,0.05,WUHU216DAVISVP2,2013-05-18 12:00:00,
2013-05-18 08:01:00,62.7,61.8,30.12,NE,44,2.0,5.0,97,0.01,,,0.05,WUHU216DAVISVP2,2013-05-18 12:01:00,
2013-05-18 08:06:00,62.7,61.8,30.12,ENE,65,2.0,5.0,97,0.01,,,0.05,WUHU216DAVISVP2,2013-05-18 12:06:00,
2013-05-18 08:11:00,62.8,61.9,30.12,NE,44,2.0,4.0,97,0.01,,,0.05,WUHU216DAVISVP2,2013-05-18 12:11:00,
2013-05-18 08:16:00,62.9,62.0,30.12,NE,54,3.0,6.0,97,0.01,,,0.05,WUHU216DAVISVP2,2013-05-18 12:16:00,
2013-05-18 08:21:00,62.9,62.0,30.12,NE,56,3.0,6.0,97,0.00,,,0.05,WUHU216DAVISVP2,2013-05-18 12:21:00,
2013-05-18 08:26:00,63.0,62.1,30.12,NE,51,4.0,6.0,97,0.00,,,0.05,WUHU216DAVISVP2,2013-05-18 12:26:00,
2013-05-18 08:30:00,63.0,62.1,30.13,NE,45,3.0,6.0,97,0.00,,,0.05,WUHU216DAVISVP2,2013-05-18 12:30:00,
2013-05-18 08:31:00,63.0,62.1,30.13,ENE,58,3.0,6.0,97,0.00,,,0.05,WUHU216DAVISVP2,2013-05-18 12:31:00,
2013-05-18 08:36:00,63.1,62.2,30.13,NE,53,4.0,6.0,97,0.00,,,0.05,WUHU216DAVISVP2,2013-05-18 12:36:00,
2013-05-18 08:41:00,63.1,62.2,30.13,NE,46,4.0,5.0,97,0.00,,,0.05,WUHU216DAVISVP2,2013-05-18 12:41:00,
2013-05-18 08:46:00,63.2,62.3,30.13,North,352,3.0,6.0,97,0.00,,,0.05,WUHU216DAVISVP2,2013-05-18 12:46:00,
2013-05-18 08:51:00,63.1,62.2,30.13,ENE,60,5.0,7.0,97,0.00,,,0.05,WUHU216DAVISVP2,2013-05-18 12:51:00,
2013-05-18 08:56:00,63.1,61.9,30.13,ENE,58,4.0,7.0,96,0.00,,,0.05,WUHU216DAVISVP2,2013-05-18 12:56:00,
2013-05-18 09:00:00,63.2,62.3,30.13,NE,45,3.0,7.0,97,0.00,,,0.05,WUHU216DAVISVP2,2013-05-18 13:00:00,
2013-05-18 09:01:00,63.3,62.4,30.13,ENE,65,3.0,7.0,97,0.00,,,0.05,WUHU216DAVISVP2,2013-05-18 13:01:00,
2013-05-18 09:06:00,63.2,62.0,30.13,ENE,63,3.0,9.0,96,0.00,,,0.05,WUHU216DAVISVP2,2013-05-18 13:06:00,
2013-05-18 09:11:00,63.3,62.1,30.13,NE,43,5.0,9.0,96,0.00,,,0.05,WUHU216DAVISVP2,2013-05-18 13:11:00,
2013-05-18 09:16:00,63.3,62.1,30.13,ENE,57,4.0,8.0,96,0.00,,,0.05,WUHU216DAVISVP2,2013-05-18 13:16:00,
2013-05-18 09:21:00,63.4,61.9,30.13,ENE,58,4.0,9.0,95,0.00,,,0.05,WUHU216DAVISVP2,2013-05-18 13:21:00,
2013-05-18 09:26:00,63.4,61.9,30.13,ENE,59,6.0,9.0,95,0.00,,,0.05,WUHU216DAVISVP2,2013-05-18 13:26:00,
2013-05-18 09:30:00,63.4,61.9,30.13,NE,45,5.0,9.0,95,0.00,,,0.05,WUHU216DAVISVP2,2013-05-18 13:30:00,
2013-05-18 09:31:00,63.5,62.0,30.13,North,356,3.0,9.0,95,0.00,,,0.05,WUHU216DAVISVP2,2013-05-18 13:31:00,
2013-05-18 09:36:00,63.6,62.1,30.13,ENE,71,5.0,9.0,95,0.00,,,0.05,WUHU216DAVISVP2,2013-05-18 13:36:00,
2013-05-18 09:41:00,63.6,62.1,30.13,NE,43,4.0,8.0,95,0.00,,,0.05,WUHU216DAVISVP2,2013-05-18 13:41:00,
2013-05-18 09:46:00,63.6,62.1,30.13,ENE,63,5.0,8.0,95,0.00,,,0.05,WUHU216DAVISVP2,2013-05-18 13:46:00,
2013-05-18 09:51:00,63.6,62.1,30.13,ENE,57,4.0,8.0,95,0.00,,,0.05,WUHU216DAVISVP2,2013-05-18 13:51:00,
2013-05-18 09:56:00,63.6,62.1,30.13,ENE,63,5.0,8.0,95,0.00,,,0.05,WUHU216DAVISVP2,2013-05-18 13:56:00,
2013-05-18 10:00:00,63.7,62.2,30.13,ENE,68,5.0,8.0,95,0.00,,,0.05,WUHU216DAVISVP2,2013-05-18 14:00:00,
2013-05-18 10:01:00,63.7,62.2,30.13,East,84,4.0,8.0,95,0.00,,,0.05,WUHU216DAVISVP2,2013-05-18 14:01:00,
2013-05-18 10:06:00,63.7,62.2,30.14,NE,49,6.0,8.0,95,0.00,,,0.05,WUHU216DAVISVP2,2013-05-18 14:06:00,
2013-05-18 10:11:00,63.7,62.2,30.14,NE,56,3.0,8.0,95,0.00,,,0.05,WUHU216DAVISVP2,2013-05-18 14:11:00,
2013-05-18 10:16:00,63.9,62.4,30.13,ENE,68,3.0,8.0,95,0.00,,,0.05,WUHU216DAVISVP2,2013-05-18 14:16:00,
2013-05-18 10:21:00,63.8,62.3,30.13,NE,53,5.0,10.0,95,0.00,,,0.05,WUHU216DAVISVP2,2013-05-18 14:21:00,
2013-05-18 10:26:00,63.9,62.4,30.13,ENE,57,3.0,10.0,95,0.00,,,0.05,WUHU216DAVISVP2,2013-05-18 14:26:00,
2013-05-18 10:30:00,64.1,62.6,30.14,ENE,68,4.0,10.0,95,0.00,,,0.05,WUHU216DAVISVP2,2013-05-18 14:30:00,
2013-05-18 10:31:00,64.1,62.6,30.13,NE,56,3.0,9.0,95,0.00,,,0.05,WUHU216DAVISVP2,2013-05-18 14:31:00,
2013-05-18 10:36:00,64.1,62.3,30.13,NE,47,4.0,9.0,94,0.00,,,0.05,WUHU216DAVISVP2,2013-05-18 14:36:00,
2013-05-18 10:41:00,64.2,62.4,30.13,ENE,63,7.0,8.0,94,0.00,,,0.05,WUHU216DAVISVP2,2013-05-18 14:41:00,
2013-05-18 10:46:00,64.3,62.5,30.13,ENE,57,7.0,8.0,94,0.00,,,0.05,WUHU216DAVISVP2,2013-05-18 14:46:00,
2013-05-18 10:51:00,64.4,62.6,30.13,ENE,73,7.0,12.0,94,0.00,,,0.05,WUHU216DAVISVP2,2013-05-18 14:51:00,
2013-05-18 10:56:00,64.6,62.8,30.13,ENE,57,2.0,12.0,94,0.00,,,0.05,WUHU216DAVISVP2,2013-05-18 14:56:00,
2013-05-18 11:00:00,64.7,62.9,30.13,ENE,68,5.0,12.0,94,0.00,,,0.05,WUHU216DAVISVP2,2013-05-18 15:00:00,
2013-05-18 11:01:00,64.7,62.9,30.13,ENE,57,6.0,11.0,94,0.00,,,0.05,WUHU216DAVISVP2,2013-05-18 15:01:00,
2013-05-18 11:06:00,64.7,62.9,30.14,ENE,63,2.0,11.0,94,0.00,,,0.05,WUHU216DAVISVP2,2013-05-18 15:06:00,
2013-05-18 11:11:00,64.8,63.0,30.14,ENE,75,3.0,8.0,94,0.00,,,0.05,WUHU216DAVISVP2,2013-05-18 15:11:00,
2013-05-18 11:16:00,64.8,63.0,30.14,East,95,1.0,8.0,94,0.00,,,0.05,WUHU216DAVISVP2,2013-05-18 15:16:00,
2013-05-18 11:21:00,64.9,62.8,30.14,NE,36,4.0,8.0,93,0.00,,,0.05,WUHU216DAVISVP2,2013-05-18 15:21:00,
2013-05-18 11:26:00,64.8,62.7,30.14,NNE,18,3.0,7.0,93,0.00,,,0.05,WUHU216DAVISVP2,2013-05-18 15:26:00,
2013-05-18 11:30:00,64.8,62.7,30.14,ENE,68,4.0,9.0,93,0.00,,,0.05,WUHU216DAVISVP2,2013-05-18 15:30:00,
2013-05-18 11:31:00,64.9,62.8,30.14,ENE,65,3.0,7.0,93,0.00,,,0.05,WUHU216DAVISVP2,2013-05-18 15:31:00,
2013-05-18 11:36:00,65.0,62.9,30.14,NE,53,1.0,7.0,93,0.00,,,0.05,WUHU216DAVISVP2,2013-05-18 15:36:00,
2013-05-18 11:41:00,65.0,62.9,30.14,ENE,57,3.0,6.0,93,0.00,,,0.05,WUHU216DAVISVP2,2013-05-18 15:41:00,
2013-05-18 11:46:00,65.1,63.0,30.14,ENE,61,5.0,6.0,93,0.00,,,0.05,WUHU216DAVISVP2,2013-05-18 15:46:00,
2013-05-18 11:51:00,65.3,63.5,30.14,NE,35,3.0,6.0,94,0.00,,,0.05,WUHU216DAVISVP2,2013-05-18 15:51:00,
2013-05-18 11:56:00,65.4,63.0,30.14,ENE,60,3.0,7.0,92,0.00,,,0.05,WUHU216DAVISVP2,2013-05-18 15:56:00,
2013-05-18 12:00:00,65.4,63.3,30.14,ENE,68,3.0,7.0,93,0.00,,,0.05,WUHU216DAVISVP2,2013-05-18 16:00:00,
2013-05-18 12:01:00,65.4,63.3,30.14,ENE,63,5.0,7.0,93,0.00,,,0.05,WUHU216DAVISVP2,2013-05-18 16:01:00,
2013-05-18 12:06:00,65.3,63.2,30.13,ENE,63,4.0,7.0,93,0.00,,,0.05,WUHU216DAVISVP2,2013-05-18 16:06:00,
2013-05-18 12:11:00,65.3,63.2,30.13,NNE,26,4.0,7.0,93,0.00,,,0.05,WUHU216DAVISVP2,2013-05-18 16:11:00,
2013-05-18 12:16:00,65.4,63.6,30.13,East,86,5.0,7.0,94,0.00,,,0.05,WUHU216DAVISVP2,2013-05-18 16:16:00,
2013-05-18 12:21:00,65.5,63.7,30.14,ESE,110,0.0,7.0,94,0.00,,,0.05,WUHU216DAVISVP2,2013-05-18 16:21:00,
2013-05-18 12:26:00,65.6,63.5,30.16,SSW,198,1.0,7.0,93,0.00,,,0.05,WUHU216DAVISVP2,2013-05-18 16:26:00,
2013-05-18 12:30:00,65.6,63.5,30.17,ENE,68,3.0,7.0,93,0.00,,,0.05,WUHU216DAVISVP2,2013-05-18 16:30:00,
2013-05-18 12:31:00,65.5,63.4,30.16,SW,221,0.0,7.0,93,0.00,,,0.05,WUHU216DAVISVP2,2013-05-18 16:31:00,
2013-05-18 12:36:00,65.4,63.3,30.16,WSW,237,0.0,7.0,93,0.00,,,0.05,WUHU216DAVISVP2,2013-05-18 16:36:00,
2013-05-18 12:41:00,65.3,63.5,30.15,WSW,239,2.0,6.0,94,0.00,,,0.05,WUHU216DAVISVP2,2013-05-18 16:41:00,
2013-05-18 12:46:00,65.2,63.4,30.15,ESE,118,0.0,6.0,94,0.03,,,0.08,WUHU216DAVISVP2,2013-05-18 16:46:00,
2013-05-18 12:51:00,65.2,63.4,30.15,East,100,0.0,3.0,94,0.05,,,0.10,WUHU216DAVISVP2,2013-05-18 16:51:00,
2013-05-18 12:56:00,65.1,63.3,30.14,ENE,72,1.0,3.0,94,0.06,,,0.11,WUHU216DAVISVP2,2013-05-18 16:56:00,
2013-05-18 13:00:00,64.9,63.1,30.14,NE,45,1.0,5.0,94,0.00,,,0.05,WUHU216DAVISVP2,2013-05-18 17:00:00,
2013-05-18 13:01:00,64.9,63.1,30.14,NE,50,1.0,3.0,94,0.06,,,0.11,WUHU216DAVISVP2,2013-05-18 17:01:00,
2013-05-18 13:06:00,64.9,63.4,30.14,NE,49,1.0,3.0,95,0.07,,,0.12,WUHU216DAVISVP2,2013-05-18 17:06:00,
2013-05-18 13:11:00,64.8,63.3,30.14,ENE,73,2.0,3.0,95,0.07,,,0.12,WUHU216DAVISVP2,2013-05-18 17:11:00,
2013-05-18 13:16:00,64.9,63.4,30.14,ENE,60,4.0,4.0,95,0.08,,,0.13,WUHU216DAVISVP2,2013-05-18 17:16:00,
2013-05-18 13:21:00,64.8,63.3,30.13,ENE,63,3.0,5.0,95,0.08,,,0.13,WUHU216DAVISVP2,2013-05-18 17:21:00,
2013-05-18 13:26:00,65.2,64.0,30.13,East,79,1.0,5.0,96,0.08,,,0.13,WUHU216DAVISVP2,2013-05-18 17:26:00,
2013-05-18 13:30:00,65.4,64.2,30.13,ENE,68,2.0,5.0,96,0.06,,,0.11,WUHU216DAVISVP2,2013-05-18 17:30:00,
2013-05-18 13:31:00,65.2,63.7,30.13,ENE,64,2.0,4.0,95,0.08,,,0.13,WUHU216DAVISVP2,2013-05-18 17:31:00,
2013-05-18 13:36:00,65.4,63.6,30.13,ENE,69,0.0,4.0,94,0.08,,,0.13,WUHU216DAVISVP2,2013-05-18 17:36:00,
2013-05-18 13:40:00,65.8,63.7,30.12,NNE,33,0.0,4.0,93,0.08,,,0.13,WUHU216DAVISVP2,2013-05-18 17:40:00,
2013-05-18 13:45:00,66.2,63.8,30.12,ENE,73,2.0,4.0,92,0.05,,,0.13,WUHU216DAVISVP2,2013-05-18 17:45:00,
2013-05-18 13:51:00,66.9,64.8,30.11,NE,36,4.0,5.0,93,0.03,,,0.13,WUHU216DAVISVP2,2013-05-18 17:51:00,
2013-05-18 13:55:00,67.1,64.7,30.11,ENE,57,1.0,5.0,92,0.02,,,0.13,WUHU216DAVISVP2,2013-05-18 17:55:00,
2013-05-18 14:00:00,67.3,64.9,30.11,ENE,68,2.0,5.0,92,0.02,,,0.13,WUHU216DAVISVP2,2013-05-18 18:00:00,
2013-05-18 14:01:00,67.4,64.7,30.11,ENE,60,3.0,6.0,91,0.02,,,0.13,WUHU216DAVISVP2,2013-05-18 18:01:00,
2013-05-18 14:05:00,67.7,65.3,30.11,NNE,26,4.0,6.0,92,0.01,,,0.13,WUHU216DAVISVP2,2013-05-18 18:05:00,
2013-05-18 14:10:00,67.5,64.8,30.10,NE,53,3.0,6.0,91,0.01,,,0.13,WUHU216DAVISVP2,2013-05-18 18:10:00,
2013-05-18 14:15:00,67.6,65.2,30.10,NE,54,3.0,6.0,92,0.00,,,0.13,WUHU216DAVISVP2,2013-05-18 18:15:00,
2013-05-18 14:20:00,68.0,65.2,30.10,NE,47,2.0,6.0,91,0.00,,,0.13,WUHU216DAVISVP2,2013-05-18 18:20:00,
2013-05-18 14:25:00,68.2,65.8,30.10,NNE,23,3.0,5.0,92,0.00,,,0.13,WUHU216DAVISVP2,2013-05-18 18:25:00,
2013-05-18 14:30:00,68.4,65.3,30.10,NNE,23,2.0,5.0,90,0.00,,,0.13,WUHU216DAVISVP2,2013-05-18 18:30:00,
2013-05-18 14:35:00,68.7,65.3,30.10,ENE,63,3.0,6.0,89,0.00,,,0.13,WUHU216DAVISVP2,2013-05-18 18:35:00,
2013-05-18 14:40:00,68.9,65.8,30.10,NE,56,3.0,6.0,90,0.00,,,0.13,WUHU216DAVISVP2,2013-05-18 18:40:00,
2013-05-18 14:45:00,69.0,65.3,30.10,ENE,75,2.0,5.0,88,0.00,,,0.13,WUHU216DAVISVP2,2013-05-18 18:45:00,
2013-05-18 14:50:00,69.6,65.2,30.10,NE,53,2.0,5.0,86,0.00,,,0.13,WUHU216DAVISVP2,2013-05-18 18:50:00,
2013-05-18 14:55:00,70.3,64.9,30.10,SSE,155,0.0,5.0,83,0.00,,,0.13,WUHU216DAVISVP2,2013-05-18 18:55:00,
2013-05-18 15:00:00,70.8,65.1,30.10,ENE,75,1.0,5.0,82,0.00,,,0.13,WUHU216DAVISVP2,2013-05-18 19:00:00,
2013-05-18 15:05:00,71.4,65.3,30.09,East,79,0.0,5.0,81,0.00,,,0.13,WUHU216DAVISVP2,2013-05-18 19:05:00,
2013-05-18 15:10:00,72.0,64.9,30.09,ENE,60,2.0,4.0,78,0.00,,,0.13,WUHU216DAVISVP2,2013-05-18 19:10:00,
2013-05-18 15:15:00,72.0,65.2,30.09,NE,47,5.0,5.0,79,0.00,,,0.13,WUHU216DAVISVP2,2013-05-18 19:15:00,
2013-05-18 15:20:00,72.0,65.2,30.09,NNE,17,2.0,5.0,79,0.00,,,0.13,WUHU216DAVISVP2,2013-05-18 19:20:00,
2013-05-18 15:25:00,71.9,65.5,30.10,NW,320,0.0,5.0,80,0.00,,,0.13,WUHU216DAVISVP2,2013-05-18 19:25:00,
2013-05-18 15:30:00,72.2,66.1,30.10,SSE,158,1.0,5.0,81,0.00,,,0.13,WUHU216DAVISVP2,2013-05-18 19:30:00,
2013-05-18 15:35:00,72.3,65.9,30.10,ENE,73,1.0,5.0,80,0.00,,,0.13,WUHU216DAVISVP2,2013-05-18 19:35:00,
2013-05-18 15:40:00,71.9,66.2,30.10,NE,55,1.0,4.0,82,0.00,,,0.13,WUHU216DAVISVP2,2013-05-18 19:40:00,
2013-05-18 15:45:00,71.6,66.2,30.10,East,79,0.0,4.0,83,0.00,,,0.13,WUHU216DAVISVP2,2013-05-18 19:45:00,
2013-05-18 15:50:00,71.9,66.2,30.10,ESE,120,0.0,4.0,82,0.00,,,0.13,WUHU216DAVISVP2,2013-05-18 19:50:00,
2013-05-18 15:55:00,71.8,66.1,30.10,East,81,0.0,3.0,82,0.00,,,0.13,WUHU216DAVISVP2,2013-05-18 19:55:00,
2013-05-18 16:00:00,71.5,65.8,30.10,NE,53,0.0,3.0,82,0.00,,,0.13,WUHU216DAVISVP2,2013-05-18 20:00:00,
2013-05-18 16:05:00,71.4,65.7,30.10,ENE,63,1.0,3.0,82,0.00,,,0.13,WUHU216DAVISVP2,2013-05-18 20:05:00,
2013-05-18 16:10:00,71.2,65.5,30.10,ESE,104,0.0,3.0,82,0.00,,,0.13,WUHU216DAVISVP2,2013-05-18 20:10:00,
2013-05-18 16:15:00,71.0,65.6,30.10,ENE,72,3.0,4.0,83,0.00,,,0.13,WUHU216DAVISVP2,2013-05-18 20:15:00,
2013-05-18 16:20:00,70.5,65.5,30.09,ESE,120,2.0,5.0,84,0.00,,,0.13,WUHU216DAVISVP2,2013-05-18 20:20:00,
2013-05-18 16:25:00,70.2,65.8,30.10,ENE,65,1.0,5.0,86,0.01,,,0.14,WUHU216DAVISVP2,2013-05-18 20:25:00,
2013-05-18 16:30:00,69.9,65.9,30.10,ENE,57,3.0,5.0,87,0.01,,,0.14,WUHU216DAVISVP2,2013-05-18 20:30:00,
2013-05-18 16:35:00,69.5,65.8,30.09,SE,139,3.0,5.0,88,0.01,,,0.14,WUHU216DAVISVP2,2013-05-18 20:35:00,
2013-05-18 16:40:00,69.4,66.0,30.10,ENE,70,1.0,5.0,89,0.01,,,0.14,WUHU216DAVISVP2,2013-05-18 20:40:00,
2013-05-18 16:45:00,69.6,66.5,30.09,East,81,0.0,4.0,90,0.01,,,0.14,WUHU216DAVISVP2,2013-05-18 20:45:00,
2013-05-18 16:50:00,69.7,66.0,30.10,East,91,0.0,4.0,88,0.01,,,0.14,WUHU216DAVISVP2,2013-05-18 20:50:00,
2013-05-18 16:55:00,69.6,65.9,30.09,ENE,69,2.0,3.0,88,0.01,,,0.14,WUHU216DAVISVP2,2013-05-18 20:55:00,
2013-05-18 17:00:00,69.5,66.1,30.09,ESE,123,0.0,3.0,89,0.01,,,0.14,WUHU216DAVISVP2,2013-05-18 21:00:00,
2013-05-18 17:05:00,69.6,66.2,30.09,ENE,71,3.0,3.0,89,0.01,,,0.14,WUHU216DAVISVP2,2013-05-18 21:05:00,
2013-05-18 17:10:00,69.7,66.3,30.09,East,96,1.0,4.0,89,0.01,,,0.14,WUHU216DAVISVP2,2013-05-18 21:10:00,
2013-05-18 17:15:00,69.7,66.0,30.09,NE,53,2.0,5.0,88,0.01,,,0.14,WUHU216DAVISVP2,2013-05-18 21:15:00,
2013-05-18 17:20:00,69.7,66.3,30.08,NW,322,0.0,5.0,89,0.01,,,0.14,WUHU216DAVISVP2,2013-05-18 21:20:00,
2013-05-18 17:25:00,69.9,66.5,30.08,SSW,205,2.0,5.0,89,0.00,,,0.14,WUHU216DAVISVP2,2013-05-18 21:25:00,
2013-05-18 17:30:00,69.8,66.1,30.09,East,80,2.0,6.0,88,0.00,,,0.14,WUHU216DAVISVP2,2013-05-18 21:30:00,
2013-05-18 17:35:00,69.7,66.0,30.08,East,92,0.0,6.0,88,0.00,,,0.14,WUHU216DAVISVP2,2013-05-18 21:35:00,
2013-05-18 17:40:00,69.7,66.0,30.08,ENE,65,1.0,5.0,88,0.00,,,0.14,WUHU216DAVISVP2,2013-05-18 21:40:00,
2013-05-18 17:45:00,69.7,66.3,30.08,SSE,149,1.0,5.0,89,0.00,,,0.14,WUHU216DAVISVP2,2013-05-18 21:45:00,
2013-05-18 17:50:00,69.7,66.3,30.08,East,92,5.0,5.0,89,0.00,,,0.14,WUHU216DAVISVP2,2013-05-18 21:50:00,
2013-05-18 17:55:00,69.5,66.1,30.08,NE,53,4.0,5.0,89,0.00,,,0.14,WUHU216DAVISVP2,2013-05-18 21:55:00,
2013-05-18 18:00:00,69.3,65.9,30.08,NE,55,3.0,5.0,89,0.00,,,0.14,WUHU216DAVISVP2,2013-05-18 22:00:00,
2013-05-18 18:05:00,69.2,65.8,30.08,ENE,71,4.0,5.0,89,0.00,,,0.14,WUHU216DAVISVP2,2013-05-18 22:05:00,
2013-05-18 18:10:00,69.2,65.8,30.08,ESE,107,0.0,5.0,89,0.00,,,0.14,WUHU216DAVISVP2,2013-05-18 22:10:00,
2013-05-18 18:15:00,69.3,66.2,30.08,ENE,63,0.0,4.0,90,0.00,,,0.14,WUHU216DAVISVP2,2013-05-18 22:15:00,
2013-05-18 18:20:00,69.3,66.2,30.08,ENE,65,1.0,3.0,90,0.00,,,0.14,WUHU216DAVISVP2,2013-05-18 22:20:00,
2013-05-18 18:25:00,69.3,66.2,30.08,East,91,0.0,3.0,90,0.00,,,0.14,WUHU216DAVISVP2,2013-05-18 22:25:00,
2013-05-18 18:30:00,69.3,66.2,30.08,NE,53,1.0,3.0,90,0.00,,,0.14,WUHU216DAVISVP2,2013-05-18 22:30:00,
2013-05-18 18:35:00,69.3,66.2,30.08,ENE,78,0.0,4.0,90,0.00,,,0.14,WUHU216DAVISVP2,2013-05-18 22:35:00,
2013-05-18 18:40:00,69.3,66.2,30.09,East,79,1.0,4.0,90,0.00,,,0.14,WUHU216DAVISVP2,2013-05-18 22:40:00,
2013-05-18 18:45:00,69.2,66.1,30.09,ENE,57,3.0,3.0,90,0.00,,,0.14,WUHU216DAVISVP2,2013-05-18 22:45:00,
2013-05-18 18:50:00,69.2,66.4,30.09,ENE,63,1.0,4.0,91,0.00,,,0.14,WUHU216DAVISVP2,2013-05-18 22:50:00,
2013-05-18 18:55:00,69.3,66.5,30.09,East,94,2.0,4.0,91,0.00,,,0.14,WUHU216DAVISVP2,2013-05-18 22:55:00,
2013-05-18 19:00:00,69.3,66.2,30.09,East,85,3.0,4.0,90,0.00,,,0.14,WUHU216DAVISVP2,2013-05-18 23:00:00,
2013-05-18 19:05:00,69.2,66.1,30.09,ENE,63,3.0,6.0,90,0.00,,,0.14,WUHU216DAVISVP2,2013-05-18 23:05:00,
2013-05-18 19:10:00,69.2,66.4,30.09,ENE,60,1.0,6.0,91,0.00,,,0.14,WUHU216DAVISVP2,2013-05-18 23:10:00,
2013-05-18 19:15:00,69.1,66.3,30.09,East,94,1.0,5.0,91,0.00,,,0.14,WUHU216DAVISVP2,2013-05-18 23:15:00,
2013-05-18 19:20:00,69.0,66.2,30.09,East,91,0.0,5.0,91,0.00,,,0.14,WUHU216DAVISVP2,2013-05-18 23:20:00,
2013-05-18 19:25:00,68.9,66.1,30.10,NE,53,3.0,3.0,91,0.00,,,0.14,WUHU216DAVISVP2,2013-05-18 23:25:00,
2013-05-18 19:30:00,68.9,66.5,30.10,NE,56,3.0,4.0,92,0.00,,,0.14,WUHU216DAVISVP2,2013-05-18 23:30:00,
2013-05-18 19:35:00,68.8,66.4,30.10,ENE,72,1.0,4.0,92,0.00,,,0.14,WUHU216DAVISVP2,2013-05-18 23:35:00,
2013-05-18 19:40:00,68.7,66.3,30.10,ENE,72,0.0,4.0,92,0.00,,,0.14,WUHU216DAVISVP2,2013-05-18 23:40:00,
2013-05-18 19:45:00,68.7,66.3,30.10,ENE,72,0.0,3.0,92,0.00,,,0.14,WUHU216DAVISVP2,2013-05-18 23:45:00,
2013-05-18 19:50:00,68.6,66.2,30.10,ENE,65,3.0,4.0,92,0.00,,,0.14,WUHU216DAVISVP2,2013-05-18 23:50:00,
2013-05-18 19:55:00,68.5,66.1,30.09,ENE,67,5.0,5.0,92,0.00,,,0.14,WUHU216DAVISVP2,2013-05-18 23:55:00,
2013-05-18 20:00:00,68.4,66.3,30.09,ENE,68,2.0,5.0,93,0.00,,,0.14,WUHU216DAVISVP2,2013-05-19 00:00:00,
2013-05-18 20:05:00,68.3,66.2,30.09,East,79,3.0,5.0,93,0.00,,,0.14,WUHU216DAVISVP2,2013-05-19 00:05:00,
2013-05-18 20:10:00,68.2,66.1,30.09,ENE,63,3.0,5.0,93,0.00,,,0.14,WUHU216DAVISVP2,2013-05-19 00:10:00,
2013-05-18 20:15:00,68.1,65.7,30.09,East,79,2.0,5.0,92,0.00,,,0.14,WUHU216DAVISVP2,2013-05-19 00:15:00,
2013-05-18 20:20:00,68.1,65.7,30.09,ENE,75,1.0,5.0,92,0.00,,,0.14,WUHU216DAVISVP2,2013-05-19 00:20:00,
2013-05-18 20:25:00,68.0,65.6,30.09,ENE,63,2.0,5.0,92,0.00,,,0.14,WUHU216DAVISVP2,2013-05-19 00:25:00,
2013-05-18 20:30:00,68.0,65.2,30.09,ENE,57,3.0,5.0,91,0.00,,,0.14,WUHU216DAVISVP2,2013-05-19 00:30:00,
2013-05-18 20:35:00,67.9,65.2,30.09,ENE,67,2.0,5.0,91,0.00,,,0.14,WUHU216DAVISVP2,2013-05-19 00:35:00,
2013-05-18 20:40:00,67.9,65.2,30.09,ENE,73,2.0,5.0,91,0.00,,,0.14,WUHU216DAVISVP2,2013-05-19 00:40:00,
2013-05-18 20:45:00,67.8,65.1,30.09,ENE,59,5.0,5.0,91,0.00,,,0.14,WUHU216DAVISVP2,2013-05-19 00:45:00,
2013-05-18 20:50:00,67.8,65.1,30.09,ENE,65,2.0,5.0,91,0.00,,,0.14,WUHU216DAVISVP2,2013-05-19 00:50:00,
2013-05-18 20:55:00,67.7,65.0,30.09,ENE,72,0.0,5.0,91,0.00,,,0.14,WUHU216DAVISVP2,2013-05-19 00:55:00,
2013-05-18 21:00:00,67.7,65.0,30.10,ENE,75,1.0,5.0,91,0.00,,,0.14,WUHU216DAVISVP2,2013-05-19 01:00:00,
2013-05-18 21:05:00,67.7,65.0,30.10,ENE,77,3.0,4.0,91,0.00,,,0.14,WUHU216DAVISVP2,2013-05-19 01:05:00,
2013-05-18 21:10:00,67.7,65.0,30.10,East,86,0.0,4.0,91,0.00,,,0.14,WUHU216DAVISVP2,2013-05-19 01:10:00,
2013-05-18 21:15:00,67.6,64.9,30.10,East,86,0.0,4.0,91,0.00,,,0.14,WUHU216DAVISVP2,2013-05-19 01:15:00,
2013-05-18 21:20:00,67.5,64.8,30.10,East,91,0.0,2.0,91,0.00,,,0.14,WUHU216DAVISVP2,2013-05-19 01:20:00,
2013-05-18 21:25:00,67.5,65.1,30.10,East,90,0.0,2.0,92,0.00,,,0.14,WUHU216DAVISVP2,2013-05-19 01:25:00,
2013-05-18 21:30:00,67.5,65.1,30.11,East,84,2.0,2.0,92,0.00,,,0.14,WUHU216DAVISVP2,2013-05-19 01:30:00,
2013-05-18 21:35:00,67.5,65.1,30.10,East,79,1.0,2.0,92,0.00,,,0.14,WUHU216DAVISVP2,2013-05-19 01:35:00,
2013-05-18 21:40:00,67.5,65.1,30.11,ENE,74,0.0,3.0,92,0.00,,,0.14,WUHU216DAVISVP2,2013-05-19 01:40:00,
2013-05-18 21:45:00,67.5,65.1,30.11,East,97,2.0,3.0,92,0.00,,,0.14,WUHU216DAVISVP2,2013-05-19 01:45:00,
2013-05-18 21:50:00,67.5,65.1,30.11,East,79,1.0,3.0,92,0.00,,,0.14,WUHU216DAVISVP2,2013-05-19 01:50:00,
2013-05-18 21:55:00,67.4,65.0,30.11,ENE,61,3.0,4.0,92,0.00,,,0.14,WUHU216DAVISVP2,2013-05-19 01:55:00,
2013-05-18 22:00:00,67.4,65.0,30.11,ENE,70,2.0,4.0,92,0.00,,,0.14,WUHU216DAVISVP2,2013-05-19 02:00:00,
2013-05-18 22:05:00,67.3,64.9,30.11,ENE,63,5.0,7.0,92,0.00,,,0.14,WUHU216DAVISVP2,2013-05-19 02:05:00,
2013-05-18 22:10:00,67.2,65.1,30.11,SE,132,0.0,7.0,93,0.00,,,0.14,WUHU216DAVISVP2,2013-05-19 02:10:00,
2013-05-18 22:15:00,67.2,65.1,30.11,ESE,123,0.0,6.0,93,0.00,,,0.14,WUHU216DAVISVP2,2013-05-19 02:15:00,
2013-05-18 22:20:00,67.2,65.1,30.11,SSW,203,0.0,6.0,93,0.00,,,0.14,WUHU216DAVISVP2,2013-05-19 02:20:00,
2013-05-18 22:25:00,67.1,65.0,30.11,SSW,203,0.0,4.0,93,0.00,,,0.14,WUHU216DAVISVP2,2013-05-19 02:25:00,
2013-05-18 22:30:00,67.1,65.0,30.11,SSW,203,0.0,1.0,93,0.00,,,0.14,WUHU216DAVISVP2,2013-05-19 02:30:00,
2013-05-18 22:35:00,67.0,64.9,30.11,WSW,253,0.0,1.0,93,0.00,,,0.14,WUHU216DAVISVP2,2013-05-19 02:35:00,
2013-05-18 22:40:00,66.9,64.8,30.11,SSE,162,0.0,1.0,93,0.00,,,0.14,WUHU216DAVISVP2,2013-05-19 02:40:00,
2013-05-18 22:45:00,66.9,64.8,30.11,SSE,162,0.0,1.0,93,0.00,,,0.14,WUHU216DAVISVP2,2013-05-19 02:45:00,
2013-05-18 22:50:00,66.8,64.7,30.11,SSE,161,0.0,1.0,93,0.00,,,0.14,WUHU216DAVISVP2,2013-05-19 02:50:00,
2013-05-18 22:55:00,66.7,64.6,30.11,SSE,162,0.0,1.0,93,0.00,,,0.14,WUHU216DAVISVP2,2013-05-19 02:55:00,
2013-05-18 23:00:00,66.6,64.5,30.11,SSE,165,0.0,1.0,93,0.00,,,0.14,WUHU216DAVISVP2,2013-05-19 03:00:00,
2013-05-18 23:05:00,66.5,64.7,30.11,SW,221,0.0,1.0,94,0.00,,,0.14,WUHU216DAVISVP2,2013-05-19 03:05:00,
2013-05-18 23:10:00,66.4,64.6,30.11,SW,221,0.0,1.0,94,0.00,,,0.14,WUHU216DAVISVP2,2013-05-19 03:10:00,
2013-05-18 23:15:00,66.3,64.5,30.11,SSE,150,0.0,1.0,94,0.00,,,0.14,WUHU216DAVISVP2,2013-05-19 03:15:00,
2013-05-18 23:20:00,66.3,64.5,30.10,East,93,1.0,2.0,94,0.00,,,0.14,WUHU216DAVISVP2,2013-05-19 03:20:00,
2013-05-18 23:25:00,66.2,64.4,30.11,ESE,105,0.0,2.0,94,0.00,,,0.14,WUHU216DAVISVP2,2013-05-19 03:25:00,
2013-05-18 23:30:00,66.2,64.4,30.11,East,95,0.0,2.0,94,0.00,,,0.14,WUHU216DAVISVP2,2013-05-19 03:30:00,
2013-05-18 23:35:00,66.1,64.3,30.11,NE,44,0.0,2.0,94,0.00,,,0.14,WUHU216DAVISVP2,2013-05-19 03:35:00,
2013-05-18 23:40:00,66.1,64.3,30.10,ENE,70,1.0,1.0,94,0.00,,,0.14,WUHU216DAVISVP2,2013-05-19 03:40:00,
2013-05-18 23:45:00,66.1,64.3,30.10,East,91,1.0,3.0,94,0.00,,,0.14,WUHU216DAVISVP2,2013-05-19 03:45:00,
2013-05-18 23:50:00,66.1,64.3,30.10,East,82,0.0,3.0,94,0.00,,,0.14,WUHU216DAVISVP2,2013-05-19 03:50:00,
2013-05-18 23:55:00,66.1,64.3,30.10,East,82,1.0,2.0,94,0.00,,,0.14,WUHU216DAVISVP2,2013-05-19 03:55:00,